TimePDT,TemperatureF,Dew PointF,Humidity,Sea Level PressureIn,VisibilityMPH,Wind Direction,Wind SpeedMPH,Gust SpeedMPH,PrecipitationIn,Events,Conditions,WindDirDegrees,DateUTC
12:15 AM,42.8,35.6,76,29.94,10.0,Calm,Calm,-,N/A,,Clear,0,2012-10-08 07:15:00
12:35 AM,44.6,35.6,71,29.95,10.0,Calm,Calm,-,N/A,,Clear,0,2012-10-08 07:35:00
12:55 AM,42.8,35.6,76,29.95,10.0,Calm,Calm,-,N/A,,Clear,0,2012-10-08 07:55:00
1:15 AM,42.8,33.8,70,29.95,10.0,Calm,Calm,-,N/A,,Clear,0,2012-10-08 08:15:00
1:55 AM,41.0,35.6,81,29.95,10.0,Calm,Calm,-,N/A,,Clear,0,2012-10-08 08:55:00
2:15 AM,41.0,35.6,81,29.96,10.0,Calm,Calm,-,N/A,,Clear,0,2012-10-08 09:15:00
2:35 AM,39.2,32.0,75,29.96,10.0,Calm,Calm,-,N/A,,Clear,0,2012-10-08 09:35:00
2:55 AM,39.2,33.8,81,29.95,10.0,Calm,Calm,-,N/A,,Clear,0,2012-10-08 09:55:00
3:15 AM,39.2,35.6,87,29.95,10.0,Calm,Calm,-,N/A,,Clear,0,2012-10-08 10:15:00
3:35 AM,37.4,33.8,87,29.95,10.0,Calm,Calm,-,N/A,,Clear,0,2012-10-08 10:35:00
3:55 AM,39.2,33.8,81,29.96,10.0,Calm,Calm,-,N/A,,Clear,0,2012-10-08 10:55:00
4:15 AM,37.4,32.0,81,29.97,10.0,Calm,Calm,-,N/A,,Clear,0,2012-10-08 11:15:00
4:35 AM,37.4,30.2,75,29.97,10.0,Calm,Calm,-,N/A,,Clear,0,2012-10-08 11:35:00
4:55 AM,37.4,33.8,87,29.97,10.0,Calm,Calm,-,N/A,,Clear,0,2012-10-08 11:55:00
5:15 AM,37.4,32.0,81,29.97,10.0,Calm,Calm,-,N/A,,Clear,0,2012-10-08 12:15:00
5:35 AM,37.4,32.0,81,29.98,10.0,Calm,Calm,-,N/A,,Clear,0,2012-10-08 12:35:00
5:55 AM,37.4,32.0,81,29.98,10.0,Calm,Calm,-,N/A,,Clear,0,2012-10-08 12:55:00
6:15 AM,37.4,32.0,81,29.98,10.0,Calm,Calm,-,N/A,,Clear,0,2012-10-08 13:15:00
6:35 AM,37.4,32.0,81,29.98,10.0,Calm,Calm,-,N/A,,Clear,0,2012-10-08 13:35:00
6:55 AM,35.6,32.0,87,29.98,6.0,Calm,Calm,-,N/A,,Clear,0,2012-10-08 13:55:00
7:15 AM,35.6,33.8,93,29.99,10.0,Calm,Calm,-,N/A,,Clear,0,2012-10-08 14:15:00
7:35 AM,35.6,30.2,81,29.99,10.0,Calm,Calm,-,N/A,,Clear,0,2012-10-08 14:35:00
7:55 AM,37.4,33.8,87,30.00,5.0,Calm,Calm,-,N/A,,Clear,0,2012-10-08 14:55:00
8:15 AM,37.4,33.8,87,30.01,10.0,Calm,Calm,-,N/A,,Clear,0,2012-10-08 15:15:00
8:35 AM,42.8,35.6,76,30.01,7.0,Calm,Calm,-,N/A,,Clear,0,2012-10-08 15:35:00
8:55 AM,44.6,35.6,71,30.01,7.0,Calm,Calm,-,N/A,,Clear,0,2012-10-08 15:55:00
9:15 AM,46.4,37.4,71,30.01,10.0,Calm,Calm,-,N/A,,Clear,0,2012-10-08 16:15:00
9:35 AM,46.4,37.4,71,30.02,10.0,Calm,Calm,-,N/A,,Clear,0,2012-10-08 16:35:00
9:55 AM,48.2,39.2,71,30.02,10.0,Calm,Calm,-,N/A,,Clear,0,2012-10-08 16:55:00
10:15 AM,50.0,41.0,71,30.01,10.0,Calm,Calm,-,N/A,,Clear,0,2012-10-08 17:15:00
10:35 AM,51.8,41.0,67,30.02,10.0,Calm,Calm,-,N/A,,Clear,0,2012-10-08 17:35:00
10:55 AM,51.8,39.2,62,30.02,10.0,Calm,Calm,-,N/A,,Clear,0,2012-10-08 17:55:00
11:15 AM,53.6,39.2,58,30.02,10.0,Calm,Calm,-,N/A,,Clear,0,2012-10-08 18:15:00
11:35 AM,55.4,39.2,54,30.01,10.0,Calm,Calm,-,N/A,,Clear,0,2012-10-08 18:35:00
11:55 AM,57.2,39.2,51,30.01,10.0,Calm,Calm,-,N/A,,Clear,0,2012-10-08 18:55:00
12:15 PM,57.2,42.8,59,30.01,9.0,Calm,Calm,-,N/A,,Clear,0,2012-10-08 19:15:00
12:35 PM,60.8,42.8,52,30.00,8.0,Calm,Calm,-,N/A,,Clear,0,2012-10-08 19:35:00
12:55 PM,60.8,42.8,52,30.00,9.0,Calm,Calm,-,N/A,,Clear,0,2012-10-08 19:55:00
1:15 PM,62.6,42.8,48,30.00,10.0,Calm,Calm,-,N/A,,Clear,0,2012-10-08 20:15:00
1:35 PM,64.4,42.8,45,29.99,10.0,Calm,Calm,-,N/A,,Clear,0,2012-10-08 20:35:00
1:55 PM,64.4,42.8,45,29.98,10.0,Calm,Calm,-,N/A,,Clear,0,2012-10-08 20:55:00
2:15 PM,66.2,44.6,46,29.98,10.0,Calm,Calm,-,N/A,,Clear,0,2012-10-08 21:15:00
2:35 PM,66.2,42.8,43,29.97,10.0,NNW,3.5,-,N/A,,Clear,340,2012-10-08 21:35:00
2:55 PM,66.2,44.6,46,29.97,10.0,NNW,3.5,-,N/A,,Clear,330,2012-10-08 21:55:00
3:15 PM,66.2,42.8,43,29.97,10.0,NW,4.6,-,N/A,,Clear,310,2012-10-08 22:15:00
3:35 PM,66.2,42.8,43,29.97,10.0,WNW,8.1,-,N/A,,Clear,290,2012-10-08 22:35:00
3:55 PM,66.2,42.8,43,29.97,10.0,WNW,5.8,-,N/A,,Clear,290,2012-10-08 22:55:00
4:15 PM,66.2,42.8,43,29.97,10.0,NNW,4.6,-,N/A,,Clear,330,2012-10-08 23:15:00
4:35 PM,66.2,42.8,43,29.98,10.0,WNW,6.9,-,N/A,,Clear,290,2012-10-08 23:35:00
4:55 PM,66.2,44.6,46,29.98,10.0,NW,5.8,-,N/A,,Clear,310,2012-10-08 23:55:00
5:15 PM,64.4,44.6,49,29.98,10.0,NW,3.5,-,N/A,,Clear,310,2012-10-09 00:15:00
5:35 PM,62.6,46.4,55,29.98,10.0,NW,3.5,-,N/A,,Clear,310,2012-10-09 00:35:00
5:55 PM,62.6,44.6,52,29.98,10.0,NW,5.8,-,N/A,,Clear,320,2012-10-09 00:55:00
6:15 PM,60.8,44.6,55,29.99,10.0,NW,4.6,-,N/A,,Clear,310,2012-10-09 01:15:00
6:35 PM,59.0,44.6,59,29.99,10.0,WNW,3.5,-,N/A,,Clear,300,2012-10-09 01:35:00
6:55 PM,57.2,44.6,63,30.00,10.0,Calm,Calm,-,N/A,,Clear,0,2012-10-09 01:55:00
7:15 PM,55.4,44.6,67,30.01,10.0,NW,3.5,-,N/A,,Clear,320,2012-10-09 02:15:00
7:35 PM,55.4,44.6,67,30.01,10.0,Calm,Calm,-,N/A,,Clear,0,2012-10-09 02:35:00
7:55 PM,55.4,44.6,67,30.01,10.0,Calm,Calm,-,N/A,,Clear,0,2012-10-09 02:55:00
8:15 PM,53.6,44.6,72,30.02,10.0,Calm,Calm,-,N/A,,Clear,0,2012-10-09 03:15:00
8:55 PM,51.8,44.6,76,30.03,10.0,NW,3.5,-,N/A,,Clear,320,2012-10-09 03:55:00
9:35 PM,51.8,44.6,76,30.04,10.0,Calm,Calm,-,N/A,,Clear,0,2012-10-09 04:35:00
10:15 PM,50.0,44.6,82,30.06,10.0,Calm,Calm,-,N/A,,Clear,0,2012-10-09 05:15:00
10:35 PM,48.2,42.8,82,30.06,8.0,Calm,Calm,-,N/A,,Scattered Clouds,0,2012-10-09 05:35:00
10:55 PM,48.2,42.8,82,30.07,10.0,Calm,Calm,-,N/A,,Mostly Cloudy,0,2012-10-09 05:55:00
11:15 PM,48.2,42.8,82,30.08,10.0,Calm,Calm,-,N/A,,Overcast,0,2012-10-09 06:15:00
11:55 PM,48.2,44.6,87,30.08,10.0,Calm,Calm,-,N/A,,Overcast,0,2012-10-09 06:55:00